createdAt,value
2023-02-18T00:00:19.384Z,44.43
2023-02-18T00:01:29.037Z,44.452999
2023-02-18T00:02:38.739Z,44.441002
2023-02-18T00:03:48.319Z,44.471001
2023-02-18T00:04:57.932Z,44.457001
2023-02-18T00:06:07.851Z,44.438999
2023-02-18T00:07:17.226Z,44.433998
2023-02-18T00:08:26.912Z,44.390999
2023-02-18T00:09:36.523Z,44.408001
2023-02-18T00:10:46.147Z,44.433998
2023-02-18T00:11:55.782Z,44.445
2023-02-18T00:13:05.512Z,44.451
2023-02-18T00:14:15.135Z,44.463001
2023-02-18T00:15:24.827Z,44.445
2023-02-18T00:16:34.623Z,44.457001
2023-02-18T00:17:44.272Z,44.465
2023-02-18T00:18:53.897Z,44.470001
2023-02-18T00:20:03.523Z,44.476002
2023-02-18T00:21:13.204Z,44.487999
2023-02-18T00:22:22.821Z,44.463001
2023-02-18T00:23:32.473Z,44.473999
2023-02-18T00:24:42.097Z,44.473999
2023-02-18T00:25:51.732Z,44.473999
2023-02-18T00:27:01.385Z,44.48
2023-02-18T00:28:10.997Z,44.465
2023-02-18T00:29:20.632Z,44.459
2023-02-18T00:30:30.509Z,44.470001
2023-02-18T00:31:40.170Z,44.48
2023-02-18T00:32:49.731Z,44.492001
2023-02-18T00:33:59.359Z,44.486
2023-02-18T00:35:09.023Z,44.48
2023-02-18T00:36:18.819Z,44.486
2023-02-18T00:37:28.450Z,44.504002
2023-02-18T00:38:39.084Z,44.509998
2023-02-18T00:39:48.719Z,44.509998
2023-02-18T00:40:58.348Z,44.535
2023-02-18T00:42:08.002Z,44.547001
2023-02-18T00:43:17.623Z,44.554001
2023-02-18T00:44:27.269Z,44.560001
2023-02-18T00:45:36.925Z,44.566002
2023-02-18T00:46:46.617Z,44.549
2023-02-18T00:47:56.232Z,44.549
2023-02-18T00:49:05.868Z,44.557999
2023-02-18T00:50:15.501Z,44.576
2023-02-18T00:51:25.136Z,44.57
2023-02-18T00:52:34.745Z,44.582001
2023-02-18T00:53:44.421Z,44.582001
2023-02-18T00:54:54.025Z,44.588001
2023-02-18T00:56:03.657Z,44.582001
2023-02-18T00:57:13.299Z,44.582001
2023-02-18T00:58:22.931Z,44.598999
2023-02-18T00:59:32.587Z,44.592999
2023-02-18T01:00:42.234Z,44.576
2023-02-18T01:01:51.902Z,44.595001
2023-02-18T01:03:01.544Z,44.613998
2023-02-18T01:04:11.174Z,44.609001
2023-02-18T01:05:20.801Z,44.613998
2023-02-18T01:06:30.434Z,44.595001
2023-02-18T01:07:40.047Z,44.589001
2023-02-18T01:08:49.756Z,44.583
2023-02-18T01:09:59.325Z,44.589001
2023-02-18T01:11:08.966Z,44.587002
2023-02-18T01:12:18.574Z,44.57
2023-02-18T01:13:28.225Z,44.575001
2023-02-18T01:14:37.908Z,44.563999
2023-02-18T01:15:47.630Z,44.587002
2023-02-18T01:16:57.152Z,44.563999
2023-02-18T01:18:06.786Z,44.581001
2023-02-18T01:19:16.436Z,44.569
2023-02-18T01:20:26.084Z,44.584999
2023-02-18T01:21:35.705Z,44.615002
2023-02-18T01:22:45.382Z,44.609001
2023-02-18T01:23:55.056Z,44.598999
2023-02-18T01:25:04.654Z,44.611
2023-02-18T01:26:14.280Z,44.618
2023-02-18T01:27:23.894Z,44.605
2023-02-18T01:28:33.520Z,44.636002
2023-02-18T01:29:43.171Z,44.636002
2023-02-18T01:30:52.808Z,44.650002
2023-02-18T01:32:02.629Z,44.650002
2023-02-18T01:33:12.085Z,44.644001
2023-02-18T01:34:23.101Z,44.638
2023-02-18T01:35:33.412Z,44.655998
2023-02-18T01:36:43.061Z,44.673
2023-02-18T01:37:52.693Z,44.660999
2023-02-18T01:39:02.344Z,44.653999
2023-02-18T01:40:11.972Z,44.682999
2023-02-18T01:41:21.681Z,44.659
2023-02-18T01:42:31.278Z,44.688999
2023-02-18T01:43:40.944Z,44.671001
2023-02-18T01:44:50.566Z,44.682999
2023-02-18T01:46:00.213Z,44.709999
2023-02-18T01:47:09.934Z,44.698002
2023-02-18T01:48:19.539Z,44.660999
2023-02-18T01:49:29.172Z,44.706001
2023-02-18T01:50:38.789Z,44.706001
2023-02-18T01:51:48.438Z,44.723999
2023-02-18T01:52:58.087Z,44.723999
2023-02-18T01:54:07.742Z,44.741001
2023-02-18T01:55:17.364Z,44.757
2023-02-18T01:56:26.974Z,44.728001
2023-02-18T01:57:36.600Z,44.773998
2023-02-18T01:58:46.240Z,44.780998
2023-02-18T01:59:55.887Z,44.763
2023-02-18T02:01:05.608Z,44.773998
2023-02-18T02:02:15.166Z,44.790001
2023-02-18T02:03:24.763Z,44.771999
2023-02-18T02:04:34.430Z,44.796001
2023-02-18T02:05:44.059Z,44.801998
2023-02-18T02:06:53.684Z,44.837002
2023-02-18T02:08:03.358Z,44.831001
2023-02-18T02:09:13.012Z,44.790001
2023-02-18T02:10:22.667Z,44.853001
2023-02-18T02:11:32.285Z,44.858002
2023-02-18T02:12:41.912Z,44.853001
2023-02-18T02:13:51.533Z,44.847
2023-02-18T02:15:01.262Z,44.863998
2023-02-18T02:16:11.206Z,44.869999
2023-02-18T02:17:20.594Z,44.863998
2023-02-18T02:18:30.252Z,44.880001
2023-02-18T02:19:39.894Z,44.891998
2023-02-18T02:20:49.515Z,44.891998
2023-02-18T02:21:59.158Z,44.943001
2023-02-18T02:23:08.804Z,44.912998
2023-02-18T02:24:18.484Z,44.900002
2023-02-18T02:25:28.197Z,44.918999
2023-02-18T02:26:37.828Z,44.937
2023-02-18T02:27:47.517Z,44.943001
2023-02-18T02:28:57.133Z,44.966
2023-02-18T02:30:06.766Z,44.995998
2023-02-18T02:31:16.524Z,45.011002
2023-02-18T02:32:26.047Z,45.011002
2023-02-18T02:33:35.690Z,45.022999
2023-02-18T02:34:45.321Z,45.022999
2023-02-18T02:35:54.976Z,45.035
2023-02-18T02:37:04.600Z,45.063999
2023-02-18T02:38:14.291Z,45.028999
2023-02-18T02:39:23.927Z,45.025002
2023-02-18T02:40:33.545Z,45.068001
2023-02-18T02:41:43.157Z,45.062
2023-02-18T02:42:52.829Z,45.097
2023-02-18T02:44:02.478Z,45.092999
2023-02-18T02:45:12.108Z,45.111
2023-02-18T02:46:21.721Z,45.131001
2023-02-18T02:47:31.383Z,45.125999
2023-02-18T02:48:41.031Z,45.125999
2023-02-18T02:49:50.728Z,45.138
2023-02-18T02:51:00.346Z,45.120998
2023-02-18T02:52:09.966Z,45.150002
2023-02-18T02:53:19.657Z,45.155998
2023-02-18T02:54:29.406Z,45.155998
2023-02-18T02:55:38.988Z,45.155998
2023-02-18T02:56:48.646Z,45.153999
2023-02-18T02:57:58.279Z,45.201
2023-02-18T02:59:07.946Z,45.188999
2023-02-18T03:00:17.564Z,45.224998
2023-02-18T03:01:27.216Z,45.201
2023-02-18T03:02:36.834Z,45.217999
2023-02-18T03:03:46.492Z,45.217999
2023-02-18T03:04:56.096Z,45.217999
2023-02-18T03:06:05.985Z,45.242001
2023-02-18T03:07:15.392Z,45.254002
2023-02-18T03:08:25.044Z,45.242001
2023-02-18T03:09:34.706Z,45.236
2023-02-18T03:10:44.327Z,45.254002
2023-02-18T03:11:53.984Z,45.242001
2023-02-18T03:13:03.608Z,45.272999
2023-02-18T03:14:13.274Z,45.266998
2023-02-18T03:15:22.934Z,45.308998
2023-02-18T03:16:32.626Z,45.32
2023-02-18T03:17:42.207Z,45.316002
2023-02-18T03:18:51.830Z,45.316002
2023-02-18T03:20:01.543Z,45.316002
2023-02-18T03:21:11.087Z,45.321999
2023-02-18T03:22:20.685Z,45.334
2023-02-18T03:23:30.314Z,45.334
2023-02-18T03:24:40.004Z,45.359001
2023-02-18T03:25:49.620Z,45.372002
2023-02-18T03:26:59.251Z,45.376999
2023-02-18T03:28:08.866Z,45.401001
2023-02-18T03:29:18.482Z,45.421001
2023-02-18T03:30:28.154Z,45.421001
2023-02-18T03:31:37.774Z,45.431999
2023-02-18T03:32:47.371Z,45.431999
2023-02-18T03:33:57.049Z,45.439999
2023-02-18T03:35:06.748Z,45.476002
2023-02-18T03:36:16.403Z,45.470001
2023-02-18T03:37:26.008Z,45.464001
2023-02-18T03:38:35.645Z,45.488998
2023-02-18T03:39:45.346Z,45.500999
2023-02-18T03:40:54.949Z,45.525002
2023-02-18T03:42:05.601Z,45.530998
2023-02-18T03:43:15.204Z,45.542
2023-02-18T03:44:24.829Z,45.554001
2023-02-18T03:45:35.207Z,45.571999
2023-02-18T03:46:44.844Z,45.554001
2023-02-18T03:47:54.490Z,45.554001
2023-02-18T03:49:04.111Z,45.577
2023-02-18T03:50:13.769Z,45.589001
2023-02-18T03:51:23.355Z,45.589001
2023-02-18T03:52:32.984Z,45.601002
2023-02-18T03:53:42.597Z,45.577
2023-02-18T03:54:52.312Z,45.612999
2023-02-18T03:56:01.917Z,45.618999
2023-02-18T03:57:11.565Z,45.633999
2023-02-18T03:58:21.184Z,45.646
2023-02-18T03:59:30.813Z,45.646
2023-02-18T04:00:40.444Z,45.664001
2023-02-18T04:01:50.075Z,45.687
2023-02-18T04:02:59.721Z,45.658001
2023-02-18T04:04:09.507Z,45.664001
2023-02-18T04:05:19.021Z,45.650002
2023-02-18T04:06:28.691Z,45.655998
2023-02-18T04:07:38.315Z,45.661999
2023-02-18T04:08:47.934Z,45.667
2023-02-18T04:09:57.590Z,45.674
2023-02-18T04:11:07.234Z,45.691002
2023-02-18T04:12:16.867Z,45.685001
2023-02-18T04:13:27.500Z,45.691002
2023-02-18T04:14:37.134Z,45.720001
2023-02-18T04:15:46.808Z,45.709
2023-02-18T04:16:56.478Z,45.737999
2023-02-18T04:18:06.067Z,45.762001
2023-02-18T04:19:15.713Z,45.75
2023-02-18T04:20:25.334Z,45.737999
2023-02-18T04:21:34.964Z,45.742001
2023-02-18T04:22:44.613Z,45.771
2023-02-18T04:23:54.240Z,45.754002
2023-02-18T04:25:03.900Z,45.813
2023-02-18T04:26:13.535Z,45.777
2023-02-18T04:27:23.165Z,45.813
2023-02-18T04:28:32.793Z,45.825001
2023-02-18T04:29:42.448Z,45.825001
2023-02-18T04:30:52.179Z,45.830002
2023-02-18T04:32:01.772Z,45.819
2023-02-18T04:33:11.389Z,45.841999
2023-02-18T04:34:21.015Z,45.835999
2023-02-18T04:35:30.705Z,45.820999
2023-02-18T04:36:40.327Z,45.855999
2023-02-18T04:37:49.951Z,45.862
2023-02-18T04:38:59.608Z,45.855999
2023-02-18T04:40:09.326Z,45.903999
2023-02-18T04:41:18.964Z,45.891998
2023-02-18T04:42:28.627Z,45.868
2023-02-18T04:43:38.263Z,45.880001
2023-02-18T04:44:47.864Z,45.889999
2023-02-18T04:45:57.574Z,45.918999
2023-02-18T04:47:07.150Z,45.902
2023-02-18T04:48:16.819Z,45.907001
2023-02-18T04:49:26.451Z,45.889999
2023-02-18T04:50:36.082Z,45.889999
2023-02-18T04:51:45.719Z,45.907001
2023-02-18T04:52:55.351Z,45.914001
2023-02-18T04:54:05.046Z,45.937
2023-02-18T04:55:14.691Z,45.937
2023-02-18T04:56:24.319Z,45.949001
2023-02-18T04:57:33.968Z,45.937
2023-02-18T04:58:43.627Z,45.937
2023-02-18T04:59:53.271Z,45.943001
2023-02-18T05:01:02.940Z,45.949001
2023-02-18T05:02:12.528Z,45.964001
2023-02-18T05:03:22.171Z,45.958
2023-02-18T05:04:31.821Z,45.976002
2023-02-18T05:05:41.462Z,45.958
2023-02-18T05:06:51.095Z,45.964001
2023-02-18T05:08:00.725Z,45.958
2023-02-18T05:09:10.369Z,46.088001
2023-02-18T05:10:20.015Z,46.096001
2023-02-18T05:11:29.599Z,46.234001
2023-02-18T05:12:39.236Z,46.377998
2023-02-18T05:13:48.913Z,46.441002
2023-02-18T05:14:58.533Z,46.452999
2023-02-18T05:16:08.535Z,46.495998
2023-02-18T05:17:17.825Z,46.512001
2023-02-18T05:18:27.437Z,46.523998
2023-02-18T05:19:37.070Z,46.564999
2023-02-18T05:20:47.104Z,46.577
2023-02-18T05:21:56.716Z,46.617001
2023-02-18T05:23:06.468Z,46.627998
2023-02-18T05:24:16.105Z,46.623001
2023-02-18T05:25:25.737Z,46.652
2023-02-18T05:26:35.445Z,46.666
2023-02-18T05:27:45.062Z,46.692001
2023-02-18T05:28:54.682Z,46.721001
2023-02-18T05:30:04.454Z,46.747002
2023-02-18T05:31:14.120Z,46.775002
2023-02-18T05:32:23.654Z,46.799
2023-02-18T05:33:34.262Z,46.823002
2023-02-18T05:34:43.889Z,46.828999
2023-02-18T05:35:53.586Z,46.833
2023-02-18T05:37:03.237Z,46.874001
2023-02-18T05:38:12.848Z,46.874001
2023-02-18T05:39:22.489Z,46.880001
2023-02-18T05:40:32.127Z,46.897999
2023-02-18T05:41:41.784Z,46.922001
2023-02-18T05:42:51.481Z,46.958
2023-02-18T05:44:01.102Z,46.965
2023-02-18T05:45:10.744Z,46.977001
2023-02-18T05:46:20.388Z,47.007
2023-02-18T05:47:30.021Z,47.000999
2023-02-18T05:48:39.684Z,47.000999
2023-02-18T05:49:49.344Z,47.000999
2023-02-18T05:50:58.988Z,47.007
2023-02-18T05:52:08.631Z,47.013
2023-02-18T05:53:18.274Z,47.055
2023-02-18T05:54:27.928Z,47.084
2023-02-18T05:55:37.672Z,47.096001
2023-02-18T05:56:47.194Z,47.122002
2023-02-18T05:57:56.848Z,47.133999
2023-02-18T05:59:07.293Z,47.153999
2023-02-18T06:00:16.915Z,47.164001
2023-02-18T06:01:26.573Z,47.164001
2023-02-18T06:02:36.255Z,47.181
2023-02-18T06:03:45.859Z,47.187
2023-02-18T06:04:55.485Z,47.193001
2023-02-18T06:06:06.314Z,47.193001
2023-02-18T06:07:15.748Z,47.205002
2023-02-18T06:08:25.380Z,47.199001
2023-02-18T06:09:35.029Z,47.210999
2023-02-18T06:10:44.672Z,47.205002
2023-02-18T06:11:54.329Z,47.229
2023-02-18T06:13:03.958Z,47.235001
2023-02-18T06:14:13.603Z,47.243
2023-02-18T06:15:23.217Z,47.255001
2023-02-18T06:16:32.920Z,47.261002
2023-02-18T06:17:42.511Z,47.266998
2023-02-18T06:18:52.143Z,47.272999
2023-02-18T06:20:01.784Z,47.278999
2023-02-18T06:21:11.389Z,47.284
2023-02-18T06:22:21.043Z,47.291
2023-02-18T06:23:30.701Z,47.291
2023-02-18T06:24:40.318Z,47.296001
2023-02-18T06:25:49.963Z,47.296001
2023-02-18T06:26:59.578Z,47.296001
2023-02-18T06:28:09.252Z,47.307999
2023-02-18T06:29:19.862Z,47.306999
2023-02-18T06:30:29.506Z,47.299
2023-02-18T06:31:39.185Z,47.286999
2023-02-18T06:32:48.758Z,47.292999
2023-02-18T06:33:58.385Z,47.275002
2023-02-18T06:35:08.020Z,47.263
2023-02-18T06:36:17.665Z,47.244999
2023-02-18T06:37:27.338Z,47.222
2023-02-18T06:38:36.955Z,47.198002
2023-02-18T06:39:46.562Z,47.186001
2023-02-18T06:40:56.239Z,47.171001
2023-02-18T06:42:05.860Z,47.176998
2023-02-18T06:43:15.505Z,47.176998
2023-02-18T06:44:25.143Z,47.171001
2023-02-18T06:45:34.769Z,47.171001
2023-02-18T06:46:44.487Z,47.176998
2023-02-18T06:47:54.046Z,47.165001
2023-02-18T06:49:03.680Z,47.182999
2023-02-18T06:50:13.375Z,47.195
2023-02-18T06:51:23.003Z,47.188999
2023-02-18T06:52:32.668Z,47.199001
2023-02-18T06:53:42.351Z,47.193001
2023-02-18T06:54:51.978Z,47.174999
2023-02-18T06:56:01.655Z,47.174999
2023-02-18T06:57:11.341Z,47.187
2023-02-18T06:58:20.974Z,47.181
2023-02-18T06:59:30.637Z,47.181
2023-02-18T07:00:40.338Z,47.168999
2023-02-18T07:01:50.340Z,47.174999
2023-02-18T07:03:00.003Z,47.174999
2023-02-18T07:04:09.656Z,47.162998
2023-02-18T07:05:19.296Z,47.162998
2023-02-18T07:06:29.969Z,47.159
2023-02-18T07:07:39.659Z,47.153
2023-02-18T07:08:49.296Z,47.165001
2023-02-18T07:09:59.805Z,47.165001
2023-02-18T07:11:09.473Z,47.153
2023-02-18T07:12:19.143Z,47.159
2023-02-18T07:13:28.789Z,47.153
2023-02-18T07:14:38.404Z,47.157001
2023-02-18T07:15:48.042Z,47.145
2023-02-18T07:16:57.717Z,47.139999
2023-02-18T07:18:07.348Z,47.139999
2023-02-18T07:19:17.019Z,47.145
2023-02-18T07:20:26.635Z,47.139999
2023-02-18T07:21:36.278Z,47.125999
2023-02-18T07:22:45.974Z,47.119999
2023-02-18T07:23:55.603Z,47.119999
2023-02-18T07:25:05.259Z,47.119999
2023-02-18T07:26:14.945Z,47.108002
2023-02-18T07:27:24.630Z,47.105999
2023-02-18T07:28:34.314Z,47.07
2023-02-18T07:29:44.015Z,47.082001
2023-02-18T07:30:53.682Z,47.063999
2023-02-18T07:32:03.421Z,47.050999
2023-02-18T07:33:13.018Z,47.063999
2023-02-18T07:34:22.683Z,47.021
2023-02-18T07:35:32.406Z,47.039001
2023-02-18T07:36:42.045Z,47.033001
2023-02-18T07:37:51.683Z,47.027
2023-02-18T07:39:01.407Z,47.014999
2023-02-18T07:40:11.042Z,47.033001
2023-02-18T07:41:20.745Z,47.008999
2023-02-18T07:42:30.479Z,47.014999
2023-02-18T07:43:40.154Z,47.002998
2023-02-18T07:44:49.783Z,47.021
2023-02-18T07:45:59.447Z,47.063999
2023-02-18T07:47:09.038Z,47.042999
2023-02-18T07:48:18.678Z,47.061001
2023-02-18T07:49:28.298Z,47.067001
2023-02-18T07:50:38.000Z,47.09
2023-02-18T07:51:47.622Z,47.175999
2023-02-18T07:52:57.281Z,47.09
2023-02-18T07:54:06.921Z,47.078999
2023-02-18T07:55:16.581Z,47.108002
2023-02-18T07:56:26.189Z,47.116001
2023-02-18T07:57:35.887Z,47.116001
2023-02-18T07:58:45.520Z,47.102001
2023-02-18T07:59:55.200Z,47.139999
2023-02-18T08:01:04.875Z,47.061001
2023-02-18T08:02:14.537Z,47.09
2023-02-18T08:03:24.146Z,47.108002
2023-02-18T08:04:33.767Z,47.108002
2023-02-18T08:05:43.372Z,47.102001
2023-02-18T08:06:53.005Z,47.096001
2023-02-18T08:08:02.698Z,47.09
2023-02-18T08:09:12.325Z,47.102001
2023-02-18T08:10:21.993Z,47.102001
2023-02-18T08:11:31.666Z,47.084999
2023-02-18T08:12:41.326Z,47.097
2023-02-18T08:13:50.990Z,47.091
2023-02-18T08:15:00.635Z,47.084999
2023-02-18T08:16:10.643Z,47.078999
2023-02-18T08:17:20.010Z,47.073002
2023-02-18T08:18:29.794Z,47.078999
2023-02-18T08:19:39.448Z,47.078999
2023-02-18T08:20:49.127Z,47.042999
2023-02-18T08:21:58.760Z,47.030998
2023-02-18T08:23:08.477Z,47.025002
2023-02-18T08:24:18.108Z,47.041
2023-02-18T08:25:29.860Z,47.021
2023-02-18T08:26:37.459Z,47.035
2023-02-18T08:27:48.077Z,47.029999
2023-02-18T08:28:57.685Z,47.009998
2023-02-18T08:30:07.371Z,47.004002
2023-02-18T08:31:17.875Z,46.986
2023-02-18T08:32:27.466Z,46.992001
2023-02-18T08:33:37.140Z,47.021
2023-02-18T08:34:46.786Z,47.008999
2023-02-18T08:35:56.493Z,46.997002
2023-02-18T08:37:06.110Z,47.021
2023-02-18T08:38:15.928Z,46.997002
2023-02-18T08:39:25.562Z,47.002998
